sensor_id;sensor_type;location;lat;lon;timestamp;pressure;altitude;pressure_sealevel;temperature
51149;BMP280;37210;50.058;8.688;2023-07-22T00:00:55;100073.97;;;17.68
51149;BMP280;37210;50.058;8.688;2023-07-22T00:03:22;100107.63;;;17.92
51149;BMP280;37210;50.058;8.688;2023-07-22T00:06:02;100101.56;;;17.61
51149;BMP280;37210;50.058;8.688;2023-07-22T00:08:30;100109.81;;;17.78
51149;BMP280;37210;50.058;8.688;2023-07-22T00:10:57;100102.00;;;17.73
51149;BMP280;37210;50.058;8.688;2023-07-22T00:13:26;100098.00;;;17.88
51149;BMP280;37210;50.058;8.688;2023-07-22T00:15:54;100095.22;;;17.92
51149;BMP280;37210;50.058;8.688;2023-07-22T00:18:22;100084.50;;;17.40
51149;BMP280;37210;50.058;8.688;2023-07-22T00:20:50;100080.47;;;17.58
51149;BMP280;37210;50.058;8.688;2023-07-22T00:23:18;100103.03;;;17.69
51149;BMP280;37210;50.058;8.688;2023-07-22T00:25:45;100104.38;;;17.54
51149;BMP280;37210;50.058;8.688;2023-07-22T00:28:13;100101.44;;;17.64
51149;BMP280;37210;50.058;8.688;2023-07-22T00:30:42;100100.16;;;17.47
51149;BMP280;37210;50.058;8.688;2023-07-22T00:33:10;100103.81;;;17.42
51149;BMP280;37210;50.058;8.688;2023-07-22T00:35:38;100108.69;;;17.57
51149;BMP280;37210;50.058;8.688;2023-07-22T00:38:05;100115.63;;;17.61
51149;BMP280;37210;50.058;8.688;2023-07-22T00:40:33;100103.19;;;17.65
51149;BMP280;37210;50.058;8.688;2023-07-22T00:43:01;100105.72;;;17.68
51149;BMP280;37210;50.058;8.688;2023-07-22T00:45:31;100102.38;;;17.63
51149;BMP280;37210;50.058;8.688;2023-07-22T00:48:00;100107.31;;;17.73
51149;BMP280;37210;50.058;8.688;2023-07-22T00:50:27;100106.09;;;17.55
51149;BMP280;37210;50.058;8.688;2023-07-22T00:52:55;100101.59;;;17.59
51149;BMP280;37210;50.058;8.688;2023-07-22T00:55:23;100095.41;;;17.58
51149;BMP280;37210;50.058;8.688;2023-07-22T00:57:50;100103.53;;;17.54
51149;BMP280;37210;50.058;8.688;2023-07-22T01:00:18;100108.84;;;17.52
51149;BMP280;37210;50.058;8.688;2023-07-22T01:02:45;100107.22;;;17.47
51149;BMP280;37210;50.058;8.688;2023-07-22T01:05:14;100089.78;;;17.41
51149;BMP280;37210;50.058;8.688;2023-07-22T01:07:42;100009.50;;;16.86
51149;BMP280;37210;50.058;8.688;2023-07-22T01:10:09;100105.38;;;17.20
51149;BMP280;37210;50.058;8.688;2023-07-22T01:12:37;100095.69;;;17.20
51149;BMP280;37210;50.058;8.688;2023-07-22T01:15:06;100094.75;;;17.23
51149;BMP280;37210;50.058;8.688;2023-07-22T01:17:36;100095.75;;;17.17
51149;BMP280;37210;50.058;8.688;2023-07-22T01:20:05;100095.19;;;17.08
51149;BMP280;37210;50.058;8.688;2023-07-22T01:22:38;100064.03;;;16.88
51149;BMP280;37210;50.058;8.688;2023-07-22T01:25:09;100093.19;;;16.85
51149;BMP280;37210;50.058;8.688;2023-07-22T01:27:37;100095.44;;;16.99
51149;BMP280;37210;50.058;8.688;2023-07-22T01:30:06;100091.97;;;16.97
51149;BMP280;37210;50.058;8.688;2023-07-22T01:32:36;100072.94;;;16.84
51149;BMP280;37210;50.058;8.688;2023-07-22T01:35:05;100102.41;;;17.01
51149;BMP280;37210;50.058;8.688;2023-07-22T01:37:33;100096.25;;;17.01
51149;BMP280;37210;50.058;8.688;2023-07-22T01:40:01;100104.34;;;16.95
51149;BMP280;37210;50.058;8.688;2023-07-22T01:42:39;100111.97;;;16.73
51149;BMP280;37210;50.058;8.688;2023-07-22T01:45:07;100103.66;;;16.88
51149;BMP280;37210;50.058;8.688;2023-07-22T01:47:37;100108.03;;;16.89
51149;BMP280;37210;50.058;8.688;2023-07-22T01:50:06;100107.63;;;16.72
51149;BMP280;37210;50.058;8.688;2023-07-22T01:52:35;100104.81;;;16.78
51149;BMP280;37210;50.058;8.688;2023-07-22T01:55:03;100103.13;;;16.75
51149;BMP280;37210;50.058;8.688;2023-07-22T01:57:32;100090.84;;;16.73
51149;BMP280;37210;50.058;8.688;2023-07-22T02:00:02;100096.13;;;16.74
51149;BMP280;37210;50.058;8.688;2023-07-22T02:02:38;100099.53;;;16.78
51149;BMP280;37210;50.058;8.688;2023-07-22T02:05:07;100098.56;;;16.50
51149;BMP280;37210;50.058;8.688;2023-07-22T02:07:35;100094.00;;;16.55
51149;BMP280;37210;50.058;8.688;2023-07-22T02:10:04;100101.38;;;16.41
51149;BMP280;37210;50.058;8.688;2023-07-22T02:12:32;100091.16;;;16.29
51149;BMP280;37210;50.058;8.688;2023-07-22T02:14:59;100094.94;;;16.54
51149;BMP280;37210;50.058;8.688;2023-07-22T02:17:29;100102.06;;;16.49
51149;BMP280;37210;50.058;8.688;2023-07-22T02:19:57;100102.25;;;16.41
51149;BMP280;37210;50.058;8.688;2023-07-22T02:22:24;100098.97;;;16.32
51149;BMP280;37210;50.058;8.688;2023-07-22T02:24:52;100102.25;;;16.41
51149;BMP280;37210;50.058;8.688;2023-07-22T02:27:19;100101.34;;;16.42
51149;BMP280;37210;50.058;8.688;2023-07-22T02:29:47;100106.91;;;16.32
51149;BMP280;37210;50.058;8.688;2023-07-22T02:32:14;100098.03;;;16.34
51149;BMP280;37210;50.058;8.688;2023-07-22T02:34:43;100099.91;;;16.29
51149;BMP280;37210;50.058;8.688;2023-07-22T02:37:11;100096.50;;;16.26
51149;BMP280;37210;50.058;8.688;2023-07-22T02:39:38;100095.78;;;16.19
51149;BMP280;37210;50.058;8.688;2023-07-22T02:42:06;100036.78;;;15.88
51149;BMP280;37210;50.058;8.688;2023-07-22T02:44:34;100100.13;;;16.22
51149;BMP280;37210;50.058;8.688;2023-07-22T02:47:01;100100.88;;;16.27
51149;BMP280;37210;50.058;8.688;2023-07-22T02:49:29;100107.28;;;16.17
51149;BMP280;37210;50.058;8.688;2023-07-22T02:51:58;100104.78;;;16.12
51149;BMP280;37210;50.058;8.688;2023-07-22T02:54:25;100108.44;;;16.05
51149;BMP280;37210;50.058;8.688;2023-07-22T02:56:53;100096.28;;;15.99
51149;BMP280;37210;50.058;8.688;2023-07-22T02:59:20;100097.28;;;15.94
51149;BMP280;37210;50.058;8.688;2023-07-22T03:01:48;100101.28;;;15.73
51149;BMP280;37210;50.058;8.688;2023-07-22T03:04:15;100099.91;;;15.95
51149;BMP280;37210;50.058;8.688;2023-07-22T03:06:44;100100.56;;;15.68
51149;BMP280;37210;50.058;8.688;2023-07-22T03:09:13;100101.97;;;15.81
51149;BMP280;37210;50.058;8.688;2023-07-22T03:11:41;100107.34;;;15.78
51149;BMP280;37210;50.058;8.688;2023-07-22T03:14:08;100108.97;;;15.84
51149;BMP280;37210;50.058;8.688;2023-07-22T03:16:36;100106.38;;;15.82
51149;BMP280;37210;50.058;8.688;2023-07-22T03:19:03;100089.88;;;15.73
51149;BMP280;37210;50.058;8.688;2023-07-22T03:21:31;100114.47;;;15.75
51149;BMP280;37210;50.058;8.688;2023-07-22T03:23:58;100078.78;;;15.60
51149;BMP280;37210;50.058;8.688;2023-07-22T03:26:27;100003.44;;;15.10
51149;BMP280;37210;50.058;8.688;2023-07-22T03:28:55;100110.22;;;15.68
51149;BMP280;37210;50.058;8.688;2023-07-22T03:31:22;100106.66;;;15.69
51149;BMP280;37210;50.058;8.688;2023-07-22T03:33:50;100107.59;;;15.68
51149;BMP280;37210;50.058;8.688;2023-07-22T03:36:18;100067.72;;;15.42
51149;BMP280;37210;50.058;8.688;2023-07-22T03:38:46;100116.00;;;15.45
51149;BMP280;37210;50.058;8.688;2023-07-22T03:41:13;100120.34;;;15.48
51149;BMP280;37210;50.058;8.688;2023-07-22T03:43:42;100121.94;;;15.55
51149;BMP280;37210;50.058;8.688;2023-07-22T03:46:10;100124.47;;;15.59
51149;BMP280;37210;50.058;8.688;2023-07-22T03:48:38;100076.97;;;15.21
51149;BMP280;37210;50.058;8.688;2023-07-22T03:51:05;100120.31;;;15.49
51149;BMP280;37210;50.058;8.688;2023-07-22T03:53:33;100122.91;;;15.51
51149;BMP280;37210;50.058;8.688;2023-07-22T03:56:00;100120.75;;;15.28
51149;BMP280;37210;50.058;8.688;2023-07-22T03:58:28;100120.44;;;15.42
51149;BMP280;37210;50.058;8.688;2023-07-22T04:00:57;100116.25;;;15.33
51149;BMP280;37210;50.058;8.688;2023-07-22T04:03:24;100117.19;;;15.29
51149;BMP280;37210;50.058;8.688;2023-07-22T04:05:55;100122.22;;;15.40
51149;BMP280;37210;50.058;8.688;2023-07-22T04:08:23;100127.34;;;15.49
51149;BMP280;37210;50.058;8.688;2023-07-22T04:10:51;100082.22;;;15.21
51149;BMP280;37210;50.058;8.688;2023-07-22T04:13:19;100129.19;;;15.44
51149;BMP280;37210;50.058;8.688;2023-07-22T04:15:47;100133.19;;;14.76
51149;BMP280;37210;50.058;8.688;2023-07-22T04:18:18;100136.59;;;14.33
51149;BMP280;37210;50.058;8.688;2023-07-22T04:20:47;100114.16;;;14.62
51149;BMP280;37210;50.058;8.688;2023-07-22T04:23:15;100133.25;;;14.73
51149;BMP280;37210;50.058;8.688;2023-07-22T04:25:43;100124.47;;;14.74
51149;BMP280;37210;50.058;8.688;2023-07-22T04:28:11;100126.03;;;13.80
51149;BMP280;37210;50.058;8.688;2023-07-22T04:30:38;100132.59;;;14.62
51149;BMP280;37210;50.058;8.688;2023-07-22T04:33:06;100011.91;;;14.40
51149;BMP280;37210;50.058;8.688;2023-07-22T04:35:38;100105.91;;;15.24
51149;BMP280;37210;50.058;8.688;2023-07-22T04:38:07;100134.09;;;15.19
51149;BMP280;37210;50.058;8.688;2023-07-22T04:40:35;100127.53;;;15.38
51149;BMP280;37210;50.058;8.688;2023-07-22T04:43:03;100125.22;;;15.66
51149;BMP280;37210;50.058;8.688;2023-07-22T04:45:30;100121.19;;;15.50
51149;BMP280;37210;50.058;8.688;2023-07-22T04:47:57;100109.00;;;15.01
51149;BMP280;37210;50.058;8.688;2023-07-22T04:50:25;100098.88;;;15.23
51149;BMP280;37210;50.058;8.688;2023-07-22T04:52:55;100000.78;;;15.12
51149;BMP280;37210;50.058;8.688;2023-07-22T04:55:23;100118.03;;;16.09
51149;BMP280;37210;50.058;8.688;2023-07-22T04:57:50;100122.72;;;16.32
51149;BMP280;37210;50.058;8.688;2023-07-22T05:00:18;100125.69;;;16.55
51149;BMP280;37210;50.058;8.688;2023-07-22T05:02:46;100124.47;;;16.68
51149;BMP280;37210;50.058;8.688;2023-07-22T05:05:14;100127.38;;;16.57
51149;BMP280;37210;50.058;8.688;2023-07-22T05:07:43;100130.06;;;16.88
51149;BMP280;37210;50.058;8.688;2023-07-22T05:10:12;100099.84;;;16.98
51149;BMP280;37210;50.058;8.688;2023-07-22T05:12:40;100120.44;;;17.47
51149;BMP280;37210;50.058;8.688;2023-07-22T05:15:10;100120.19;;;17.84
51149;BMP280;37210;50.058;8.688;2023-07-22T05:17:38;100119.13;;;18.17
51149;BMP280;37210;50.058;8.688;2023-07-22T05:20:07;100106.78;;;18.42
51149;BMP280;37210;50.058;8.688;2023-07-22T05:22:36;100016.94;;;17.87
51149;BMP280;37210;50.058;8.688;2023-07-22T05:25:05;100053.78;;;18.45
51149;BMP280;37210;50.058;8.688;2023-07-22T05:27:36;100119.00;;;18.97
51149;BMP280;37210;50.058;8.688;2023-07-22T05:30:06;100118.97;;;19.22
51149;BMP280;37210;50.058;8.688;2023-07-22T05:32:35;100104.16;;;19.41
51149;BMP280;37210;50.058;8.688;2023-07-22T05:35:02;100118.75;;;19.52
51149;BMP280;37210;50.058;8.688;2023-07-22T05:37:31;100111.69;;;19.96
51149;BMP280;37210;50.058;8.688;2023-07-22T05:39:59;100077.44;;;19.90
51149;BMP280;37210;50.058;8.688;2023-07-22T05:42:27;100112.84;;;20.32
51149;BMP280;37210;50.058;8.688;2023-07-22T05:44:57;100111.56;;;20.62
51149;BMP280;37210;50.058;8.688;2023-07-22T05:47:24;100111.75;;;20.78
51149;BMP280;37210;50.058;8.688;2023-07-22T05:49:52;100091.47;;;20.96
51149;BMP280;37210;50.058;8.688;2023-07-22T05:52:19;100099.25;;;21.20
51149;BMP280;37210;50.058;8.688;2023-07-22T05:54:47;100115.31;;;21.56
51149;BMP280;37210;50.058;8.688;2023-07-22T05:57:14;100118.78;;;21.95
51149;BMP280;37210;50.058;8.688;2023-07-22T05:59:42;100112.34;;;21.99
51149;BMP280;37210;50.058;8.688;2023-07-22T06:02:12;100118.28;;;22.23
51149;BMP280;37210;50.058;8.688;2023-07-22T06:04:40;100078.94;;;22.11
51149;BMP280;37210;50.058;8.688;2023-07-22T06:07:07;100108.59;;;22.39
51149;BMP280;37210;50.058;8.688;2023-07-22T06:09:35;100103.22;;;22.75
51149;BMP280;37210;50.058;8.688;2023-07-22T06:12:03;100090.78;;;22.91
51149;BMP280;37210;50.058;8.688;2023-07-22T06:14:31;100085.06;;;23.31
51149;BMP280;37210;50.058;8.688;2023-07-22T06:17:00;100109.06;;;23.48
51149;BMP280;37210;50.058;8.688;2023-07-22T06:19:29;100100.19;;;23.48
51149;BMP280;37210;50.058;8.688;2023-07-22T06:22:00;100100.44;;;23.74
51149;BMP280;37210;50.058;8.688;2023-07-22T06:24:27;100085.53;;;23.70
51149;BMP280;37210;50.058;8.688;2023-07-22T06:27:00;100103.66;;;23.65
51149;BMP280;37210;50.058;8.688;2023-07-22T06:29:27;100099.41;;;24.24
51149;BMP280;37210;50.058;8.688;2023-07-22T06:31:55;100080.34;;;24.30
51149;BMP280;37210;50.058;8.688;2023-07-22T06:34:22;100076.69;;;24.76
51149;BMP280;37210;50.058;8.688;2023-07-22T06:36:51;100099.34;;;24.55
51149;BMP280;37210;50.058;8.688;2023-07-22T06:39:19;100078.81;;;23.79
51149;BMP280;37210;50.058;8.688;2023-07-22T06:41:46;100078.38;;;23.55
51149;BMP280;37210;50.058;8.688;2023-07-22T06:44:14;100104.66;;;23.47
51149;BMP280;37210;50.058;8.688;2023-07-22T06:46:41;100090.84;;;23.07
51149;BMP280;37210;50.058;8.688;2023-07-22T06:49:10;100132.75;;;23.22
51149;BMP280;37210;50.058;8.688;2023-07-22T06:51:37;100137.56;;;22.98
51149;BMP280;37210;50.058;8.688;2023-07-22T06:54:06;100099.63;;;22.76
51149;BMP280;37210;50.058;8.688;2023-07-22T06:56:34;100110.66;;;22.68
51149;BMP280;37210;50.058;8.688;2023-07-22T06:59:02;100126.75;;;22.84
51149;BMP280;37210;50.058;8.688;2023-07-22T07:01:29;100129.16;;;21.83
51149;BMP280;37210;50.058;8.688;2023-07-22T07:03:57;100108.78;;;22.00
51149;BMP280;37210;50.058;8.688;2023-07-22T07:06:28;100127.72;;;22.47
51149;BMP280;37210;50.058;8.688;2023-07-22T07:09:00;100053.53;;;21.49
51149;BMP280;37210;50.058;8.688;2023-07-22T07:11:29;100110.88;;;22.30
51149;BMP280;37210;50.058;8.688;2023-07-22T07:13:57;100081.91;;;22.05
51149;BMP280;37210;50.058;8.688;2023-07-22T07:16:31;100082.09;;;22.19
51149;BMP280;37210;50.058;8.688;2023-07-22T07:19:00;100118.50;;;22.18
51149;BMP280;37210;50.058;8.688;2023-07-22T07:21:28;100044.06;;;21.98
51149;BMP280;37210;50.058;8.688;2023-07-22T07:23:58;100110.13;;;22.26
51149;BMP280;37210;50.058;8.688;2023-07-22T07:26:26;100116.56;;;22.22
51149;BMP280;37210;50.058;8.688;2023-07-22T07:28:55;100104.13;;;22.57
51149;BMP280;37210;50.058;8.688;2023-07-22T07:31:23;100038.75;;;22.67
51149;BMP280;37210;50.058;8.688;2023-07-22T07:33:51;100135.31;;;23.23
51149;BMP280;37210;50.058;8.688;2023-07-22T07:36:23;100139.13;;;21.78
51149;BMP280;37210;50.058;8.688;2023-07-22T07:38:53;100087.69;;;22.49
51149;BMP280;37210;50.058;8.688;2023-07-22T07:41:20;100115.78;;;23.71
51149;BMP280;37210;50.058;8.688;2023-07-22T07:43:49;100039.59;;;23.95
51149;BMP280;37210;50.058;8.688;2023-07-22T07:46:19;100084.59;;;24.18
51149;BMP280;37210;50.058;8.688;2023-07-22T07:48:52;100127.13;;;24.52
51149;BMP280;37210;50.058;8.688;2023-07-22T07:51:28;100054.91;;;24.23
51149;BMP280;37210;50.058;8.688;2023-07-22T07:54:02;100126.03;;;25.00
51149;BMP280;37210;50.058;8.688;2023-07-22T07:56:33;100049.94;;;24.46
51149;BMP280;37210;50.058;8.688;2023-07-22T07:59:05;100031.91;;;24.64
51149;BMP280;37210;50.058;8.688;2023-07-22T08:01:38;100106.91;;;25.77
51149;BMP280;37210;50.058;8.688;2023-07-22T08:04:07;100113.84;;;25.93
51149;BMP280;37210;50.058;8.688;2023-07-22T08:06:35;99954.69;;;25.28
51149;BMP280;37210;50.058;8.688;2023-07-22T08:09:04;100008.69;;;25.90
51149;BMP280;37210;50.058;8.688;2023-07-22T08:11:32;100118.06;;;26.51
51149;BMP280;37210;50.058;8.688;2023-07-22T08:14:01;100030.38;;;26.26
51149;BMP280;37210;50.058;8.688;2023-07-22T08:16:29;100107.78;;;27.09
51149;BMP280;37210;50.058;8.688;2023-07-22T08:18:58;100097.75;;;26.73
51149;BMP280;37210;50.058;8.688;2023-07-22T08:21:25;100109.91;;;26.91
51149;BMP280;37210;50.058;8.688;2023-07-22T08:23:55;100120.38;;;25.89
51149;BMP280;37210;50.058;8.688;2023-07-22T08:26:23;100096.81;;;27.12
51149;BMP280;37210;50.058;8.688;2023-07-22T08:28:51;100102.84;;;27.41
51149;BMP280;37210;50.058;8.688;2023-07-22T08:31:19;100074.16;;;26.78
51149;BMP280;37210;50.058;8.688;2023-07-22T08:33:46;100056.88;;;26.82
51149;BMP280;37210;50.058;8.688;2023-07-22T08:36:20;100019.69;;;26.64
51149;BMP280;37210;50.058;8.688;2023-07-22T08:38:48;100099.78;;;27.33
51149;BMP280;37210;50.058;8.688;2023-07-22T08:41:15;100036.88;;;26.61
51149;BMP280;37210;50.058;8.688;2023-07-22T08:43:45;100014.13;;;26.79
51149;BMP280;37210;50.058;8.688;2023-07-22T08:46:15;100046.53;;;27.39
51149;BMP280;37210;50.058;8.688;2023-07-22T08:48:47;100084.66;;;27.57
51149;BMP280;37210;50.058;8.688;2023-07-22T08:51:19;100081.53;;;27.50
51149;BMP280;37210;50.058;8.688;2023-07-22T08:53:55;100035.03;;;27.12
51149;BMP280;37210;50.058;8.688;2023-07-22T08:56:24;100092.78;;;27.81
51149;BMP280;37210;50.058;8.688;2023-07-22T08:58:52;100084.34;;;27.85
51149;BMP280;37210;50.058;8.688;2023-07-22T09:01:20;100088.63;;;27.64
51149;BMP280;37210;50.058;8.688;2023-07-22T09:03:49;100075.09;;;27.28
51149;BMP280;37210;50.058;8.688;2023-07-22T09:06:21;100084.38;;;27.36
51149;BMP280;37210;50.058;8.688;2023-07-22T09:08:49;100066.78;;;27.92
51149;BMP280;37210;50.058;8.688;2023-07-22T09:11:19;100079.03;;;27.60
51149;BMP280;37210;50.058;8.688;2023-07-22T09:13:47;100055.00;;;27.46
51149;BMP280;37210;50.058;8.688;2023-07-22T09:16:17;100083.50;;;27.97
51149;BMP280;37210;50.058;8.688;2023-07-22T09:18:46;100010.81;;;27.50
51149;BMP280;37210;50.058;8.688;2023-07-22T09:21:14;100015.94;;;27.65
51149;BMP280;37210;50.058;8.688;2023-07-22T09:23:47;99998.28;;;27.74
51149;BMP280;37210;50.058;8.688;2023-07-22T09:26:16;99993.38;;;27.19
51149;BMP280;37210;50.058;8.688;2023-07-22T09:28:52;100087.97;;;27.60
51149;BMP280;37210;50.058;8.688;2023-07-22T09:31:22;100055.31;;;27.90
51149;BMP280;37210;50.058;8.688;2023-07-22T09:33:52;100080.84;;;28.32
51149;BMP280;37210;50.058;8.688;2023-07-22T09:36:23;100079.94;;;27.48
51149;BMP280;37210;50.058;8.688;2023-07-22T09:39:02;100023.13;;;28.01
51149;BMP280;37210;50.058;8.688;2023-07-22T09:41:41;100051.28;;;27.96
51149;BMP280;37210;50.058;8.688;2023-07-22T09:44:09;99970.69;;;27.36
51149;BMP280;37210;50.058;8.688;2023-07-22T09:46:38;100043.41;;;28.29
51149;BMP280;37210;50.058;8.688;2023-07-22T09:49:09;99992.75;;;27.52
51149;BMP280;37210;50.058;8.688;2023-07-22T09:51:38;99949.38;;;27.33
51149;BMP280;37210;50.058;8.688;2023-07-22T09:54:13;100044.94;;;27.73
51149;BMP280;37210;50.058;8.688;2023-07-22T09:56:45;100056.22;;;26.91
51149;BMP280;37210;50.058;8.688;2023-07-22T09:59:13;100056.34;;;26.90
51149;BMP280;37210;50.058;8.688;2023-07-22T10:01:46;100069.44;;;27.20
51149;BMP280;37210;50.058;8.688;2023-07-22T10:04:18;100063.91;;;27.34
51149;BMP280;37210;50.058;8.688;2023-07-22T10:06:52;100058.19;;;27.63
51149;BMP280;37210;50.058;8.688;2023-07-22T10:09:23;100064.38;;;27.40
51149;BMP280;37210;50.058;8.688;2023-07-22T10:11:58;100025.53;;;27.57
51149;BMP280;37210;50.058;8.688;2023-07-22T10:14:27;99998.78;;;26.81
51149;BMP280;37210;50.058;8.688;2023-07-22T10:16:59;100063.66;;;27.62
51149;BMP280;37210;50.058;8.688;2023-07-22T10:19:30;99981.81;;;26.81
51149;BMP280;37210;50.058;8.688;2023-07-22T10:21:59;100059.28;;;27.61
51149;BMP280;37210;50.058;8.688;2023-07-22T10:24:32;100018.88;;;26.76
51149;BMP280;37210;50.058;8.688;2023-07-22T10:27:04;100004.25;;;26.67
51149;BMP280;37210;50.058;8.688;2023-07-22T10:29:33;99972.28;;;26.77
51149;BMP280;37210;50.058;8.688;2023-07-22T10:32:04;100030.88;;;27.08
51149;BMP280;37210;50.058;8.688;2023-07-22T10:34:32;100001.00;;;26.62
51149;BMP280;37210;50.058;8.688;2023-07-22T10:37:00;100036.34;;;27.07
51149;BMP280;37210;50.058;8.688;2023-07-22T10:39:29;100042.84;;;27.53
51149;BMP280;37210;50.058;8.688;2023-07-22T10:42:01;99994.88;;;27.23
51149;BMP280;37210;50.058;8.688;2023-07-22T10:44:32;100030.22;;;27.42
51149;BMP280;37210;50.058;8.688;2023-07-22T10:47:03;100019.19;;;26.97
51149;BMP280;37210;50.058;8.688;2023-07-22T10:49:43;100001.88;;;27.01
51149;BMP280;37210;50.058;8.688;2023-07-22T10:52:14;100023.25;;;27.02
51149;BMP280;37210;50.058;8.688;2023-07-22T10:54:43;100017.88;;;27.15
51149;BMP280;37210;50.058;8.688;2023-07-22T10:57:23;100028.63;;;26.77
51149;BMP280;37210;50.058;8.688;2023-07-22T10:59:52;99995.22;;;26.93
51149;BMP280;37210;50.058;8.688;2023-07-22T11:02:23;100013.81;;;26.84
51149;BMP280;37210;50.058;8.688;2023-07-22T11:04:52;99910.38;;;25.90
51149;BMP280;37210;50.058;8.688;2023-07-22T11:07:30;100025.28;;;27.11
51149;BMP280;37210;50.058;8.688;2023-07-22T11:10:11;100017.72;;;27.29
51149;BMP280;37210;50.058;8.688;2023-07-22T11:12:52;100015.44;;;26.99
51149;BMP280;37210;50.058;8.688;2023-07-22T11:15:21;99988.94;;;27.31
51149;BMP280;37210;50.058;8.688;2023-07-22T11:17:51;99996.56;;;27.49
51149;BMP280;37210;50.058;8.688;2023-07-22T11:20:21;100003.31;;;27.55
51149;BMP280;37210;50.058;8.688;2023-07-22T11:22:50;99999.94;;;27.15
51149;BMP280;37210;50.058;8.688;2023-07-22T11:25:21;100003.75;;;27.49
51149;BMP280;37210;50.058;8.688;2023-07-22T11:27:52;99987.09;;;27.44
51149;BMP280;37210;50.058;8.688;2023-07-22T11:30:23;99990.31;;;26.87
51149;BMP280;37210;50.058;8.688;2023-07-22T11:32:52;99925.38;;;26.57
51149;BMP280;37210;50.058;8.688;2023-07-22T11:35:19;99848.03;;;26.26
51149;BMP280;37210;50.058;8.688;2023-07-22T11:37:47;99955.94;;;26.92
51149;BMP280;37210;50.058;8.688;2023-07-22T11:40:15;99989.06;;;27.17
51149;BMP280;37210;50.058;8.688;2023-07-22T11:42:47;99857.28;;;26.35
51149;BMP280;37210;50.058;8.688;2023-07-22T11:45:17;99982.41;;;27.35
51149;BMP280;37210;50.058;8.688;2023-07-22T11:47:45;99965.44;;;27.22
51149;BMP280;37210;50.058;8.688;2023-07-22T11:50:12;99965.50;;;27.45
51149;BMP280;37210;50.058;8.688;2023-07-22T11:52:41;99949.91;;;27.50
51149;BMP280;37210;50.058;8.688;2023-07-22T11:55:10;99960.38;;;27.66
51149;BMP280;37210;50.058;8.688;2023-07-22T11:57:40;99980.78;;;28.16
51149;BMP280;37210;50.058;8.688;2023-07-22T12:00:11;99907.66;;;27.76
51149;BMP280;37210;50.058;8.688;2023-07-22T12:02:41;99931.97;;;27.86
51149;BMP280;37210;50.058;8.688;2023-07-22T12:05:09;99904.63;;;27.81
51149;BMP280;37210;50.058;8.688;2023-07-22T12:07:38;99883.19;;;27.08
51149;BMP280;37210;50.058;8.688;2023-07-22T12:10:08;99907.25;;;27.46
51149;BMP280;37210;50.058;8.688;2023-07-22T12:12:39;99957.38;;;27.82
51149;BMP280;37210;50.058;8.688;2023-07-22T12:17:47;99950.47;;;27.90
51149;BMP280;37210;50.058;8.688;2023-07-22T12:20:15;99945.72;;;26.98
51149;BMP280;37210;50.058;8.688;2023-07-22T12:22:44;99922.28;;;27.48
51149;BMP280;37210;50.058;8.688;2023-07-22T12:25:12;99951.59;;;27.75
51149;BMP280;37210;50.058;8.688;2023-07-22T12:27:40;99873.28;;;27.21
51149;BMP280;37210;50.058;8.688;2023-07-22T12:30:10;99925.50;;;27.53
51149;BMP280;37210;50.058;8.688;2023-07-22T12:32:38;99937.53;;;27.48
51149;BMP280;37210;50.058;8.688;2023-07-22T12:35:07;99940.72;;;27.65
51149;BMP280;37210;50.058;8.688;2023-07-22T12:37:37;99924.91;;;27.85
51149;BMP280;37210;50.058;8.688;2023-07-22T12:40:05;99950.97;;;27.95
51149;BMP280;37210;50.058;8.688;2023-07-22T12:42:34;99946.38;;;27.97
51149;BMP280;37210;50.058;8.688;2023-07-22T12:45:01;99931.38;;;28.06
51149;BMP280;37210;50.058;8.688;2023-07-22T12:47:31;99938.38;;;27.96
51149;BMP280;37210;50.058;8.688;2023-07-22T12:49:58;99860.66;;;27.58
51149;BMP280;37210;50.058;8.688;2023-07-22T12:52:26;99934.28;;;28.03
51149;BMP280;37210;50.058;8.688;2023-07-22T12:54:53;99923.03;;;27.74
51149;BMP280;37210;50.058;8.688;2023-07-22T12:57:21;99921.34;;;27.84
51149;BMP280;37210;50.058;8.688;2023-07-22T12:59:48;99922.03;;;27.75
51149;BMP280;37210;50.058;8.688;2023-07-22T13:02:16;99914.03;;;28.10
51149;BMP280;37210;50.058;8.688;2023-07-22T13:04:45;99909.00;;;28.16
51149;BMP280;37210;50.058;8.688;2023-07-22T13:07:12;99910.50;;;28.20
51149;BMP280;37210;50.058;8.688;2023-07-22T13:09:40;99904.66;;;28.26
51149;BMP280;37210;50.058;8.688;2023-07-22T13:12:09;99902.19;;;28.23
51149;BMP280;37210;50.058;8.688;2023-07-22T13:14:36;99870.84;;;27.65
51149;BMP280;37210;50.058;8.688;2023-07-22T13:17:04;99913.97;;;27.75
51149;BMP280;37210;50.058;8.688;2023-07-22T13:19:32;99913.50;;;27.70
51149;BMP280;37210;50.058;8.688;2023-07-22T13:22:00;99906.50;;;27.91
51149;BMP280;37210;50.058;8.688;2023-07-22T13:24:28;99892.28;;;28.24
51149;BMP280;37210;50.058;8.688;2023-07-22T13:26:55;99902.81;;;27.92
51149;BMP280;37210;50.058;8.688;2023-07-22T13:29:23;99887.28;;;27.85
51149;BMP280;37210;50.058;8.688;2023-07-22T13:31:50;99889.91;;;28.08
51149;BMP280;37210;50.058;8.688;2023-07-22T13:34:18;99883.34;;;28.23
51149;BMP280;37210;50.058;8.688;2023-07-22T13:36:46;99861.47;;;28.17
51149;BMP280;37210;50.058;8.688;2023-07-22T13:39:14;99879.06;;;28.21
51149;BMP280;37210;50.058;8.688;2023-07-22T13:41:42;99878.09;;;27.76
51149;BMP280;37210;50.058;8.688;2023-07-22T13:44:10;99886.72;;;27.68
51149;BMP280;37210;50.058;8.688;2023-07-22T13:46:37;99885.22;;;27.64
51149;BMP280;37210;50.058;8.688;2023-07-22T13:49:04;99879.38;;;27.70
51149;BMP280;37210;50.058;8.688;2023-07-22T13:51:32;99844.59;;;27.45
51149;BMP280;37210;50.058;8.688;2023-07-22T13:53:59;99874.25;;;28.02
51149;BMP280;37210;50.058;8.688;2023-07-22T13:56:28;99861.34;;;27.84
51149;BMP280;37210;50.058;8.688;2023-07-22T13:58:55;99869.59;;;27.93
51149;BMP280;37210;50.058;8.688;2023-07-22T14:01:25;99867.50;;;27.62
51149;BMP280;37210;50.058;8.688;2023-07-22T14:03:52;99872.44;;;27.68
51149;BMP280;37210;50.058;8.688;2023-07-22T14:06:20;99869.03;;;27.77
51149;BMP280;37210;50.058;8.688;2023-07-22T14:08:47;99855.41;;;27.91
51149;BMP280;37210;50.058;8.688;2023-07-22T14:11:15;99853.06;;;27.52